Time;durP1;ratioP1;P1;durP2;ratioP2;P2;SDS_P1;SDS_P2;PMS_P1;PMS_P2;Temp;Humidity;BMP_temperature;BMP_pressure;BME280_temperature;BME280_humidity;BME280_pressure;Samples;Min_cycle;Max_cycle;Signal;HPM_P1;HPM_P2
2024/01/29 00:01:48;;;;;;;60.63;28.38;;;-1.40;99.90;;;;;;5034081;27;20059;-82
2024/01/29 00:04:13;;;;;;;66.47;31.00;;;-1.50;99.90;;;;;;5033562;27;20417;-83
2024/01/29 00:06:39;;;;;;;57.15;28.65;;;-1.50;99.90;;;;;;5053793;27;20023;-74
2024/01/29 00:09:05;;;;;;;64.78;27.00;;;-1.50;99.90;;;;;;5134239;27;20055;-74
2024/01/29 00:11:33;;;;;;;63.97;29.17;;;-1.50;99.90;;;;;;5114344;27;20101;-75
2024/01/29 00:13:59;;;;;;;54.83;27.38;;;-1.50;99.90;;;;;;5089880;27;20160;-81
2024/01/29 00:16:24;;;;;;;55.33;28.85;;;-1.60;99.90;;;;;;5133921;27;20102;-81
2024/01/29 00:18:50;;;;;;;55.42;28.58;;;-1.60;99.90;;;;;;5079905;27;20037;-80
2024/01/29 00:21:16;;;;;;;61.40;29.90;;;-1.60;99.90;;;;;;5032345;28;20547;-74
2024/01/29 00:23:41;;;;;;;75.10;35.78;;;-1.60;99.90;;;;;;5033078;28;20044;-75
2024/01/29 00:26:07;;;;;;;76.45;33.08;;;-1.60;99.90;;;;;;5034357;27;20483;-81
2024/01/29 00:28:33;;;;;;;66.25;31.60;;;-1.70;99.90;;;;;;5033320;27;20467;-74
2024/01/29 00:30:59;;;;;;;79.03;34.75;;;-1.70;99.90;;;;;;5032378;28;20014;-74
2024/01/29 00:33:24;;;;;;;79.32;36.00;;;-1.70;99.90;;;;;;5031288;28;20141;-75
2024/01/29 00:35:50;;;;;;;59.70;30.98;;;-1.70;99.90;;;;;;5033808;27;20475;-75
2024/01/29 00:38:16;;;;;;;68.90;32.03;;;-1.80;99.90;;;;;;5032380;27;20021;-81
2024/01/29 00:40:41;;;;;;;54.53;25.65;;;-1.80;99.90;;;;;;5033147;27;20029;-74
2024/01/29 00:43:07;;;;;;;57.28;27.77;;;-1.70;99.90;;;;;;5031433;28;20120;-81
2024/01/29 00:45:33;;;;;;;57.38;26.70;;;-1.70;99.90;;;;;;5031412;28;20061;-82
2024/01/29 00:47:59;;;;;;;59.08;29.17;;;-1.70;99.90;;;;;;5087063;27;20043;-81
2024/01/29 00:50:24;;;;;;;69.65;32.63;;;-1.60;99.90;;;;;;5135466;27;20027;-74
2024/01/29 00:52:50;;;;;;;62.15;33.25;;;-1.60;99.90;;;;;;5135912;27;20035;-82
2024/01/29 00:55:15;;;;;;;52.65;27.48;;;-1.60;99.90;;;;;;5046523;27;20017;-82
2024/01/29 00:57:41;;;;;;;50.63;25.55;;;-1.50;99.90;;;;;;5040191;27;20026;-74
2024/01/29 01:00:09;;;;;;;52.55;25.40;;;-1.50;99.90;;;;;;5117739;27;20028;-82
2024/01/29 01:02:35;;;;;;;54.00;26.77;;;-1.40;99.90;;;;;;5038565;27;20064;-75
2024/01/29 01:05:01;;;;;;;58.10;28.40;;;-1.40;99.90;;;;;;5063712;27;20045;-73
2024/01/29 01:07:27;;;;;;;53.42;26.98;;;-1.40;99.90;;;;;;5060877;27;20026;-81
2024/01/29 01:09:53;;;;;;;55.80;27.42;;;-1.40;99.90;;;;;;5064477;27;20089;-81
2024/01/29 01:12:19;;;;;;;55.63;28.00;;;-1.40;99.90;;;;;;5058017;27;20490;-82
2024/01/29 01:14:44;;;;;;;49.70;23.90;;;-1.40;99.90;;;;;;5117562;27;20028;-81
2024/01/29 01:17:10;;;;;;;50.42;25.80;;;-1.40;99.90;;;;;;5058619;27;20037;-82
2024/01/29 01:19:36;;;;;;;49.97;26.83;;;-1.40;99.90;;;;;;5062214;27;20013;-74
2024/01/29 01:22:01;;;;;;;55.40;27.05;;;-1.30;99.90;;;;;;5055311;27;20029;-74
2024/01/29 01:24:27;;;;;;;48.10;24.17;;;-1.30;99.90;;;;;;5117112;27;20029;-74
2024/01/29 01:26:52;;;;;;;44.47;22.23;;;-1.30;99.90;;;;;;5035449;27;20021;-82
2024/01/29 01:29:18;;;;;;;45.28;22.20;;;-1.20;99.90;;;;;;5061203;27;20021;-83
2024/01/29 01:31:44;;;;;;;43.15;21.33;;;-1.20;99.90;;;;;;5055655;27;20079;-74
2024/01/29 01:34:10;;;;;;;48.03;22.80;;;-1.20;99.90;;;;;;5116882;27;20032;-74
2024/01/29 01:36:35;;;;;;;49.88;24.33;;;-1.10;99.90;;;;;;5057325;27;20026;-82
2024/01/29 01:39:01;;;;;;;44.33;20.98;;;-1.10;99.90;;;;;;5116927;27;20470;-82
2024/01/29 01:41:26;;;;;;;46.53;23.13;;;-1.10;99.90;;;;;;5034503;27;20033;-74
2024/01/29 01:43:52;;;;;;;44.50;22.50;;;-1.20;99.90;;;;;;5116679;27;20482;-82
2024/01/29 01:46:24;;;;;;;44.50;20.40;;;-1.20;99.90;;;;;;5052399;27;20030;-74
2024/01/29 01:48:54;;;;;;;37.47;18.98;;;-1.20;99.90;;;;;;5120031;27;20465;-74
2024/01/29 01:51:21;;;;;;;46.55;20.77;;;-1.20;99.90;;;;;;5133072;27;20027;-74
2024/01/29 01:53:52;;;;;;;37.15;20.15;;;-1.20;99.90;;;;;;5130414;27;20022;-82
2024/01/29 01:56:18;;;;;;;43.28;22.08;;;-1.10;99.90;;;;;;5071021;27;20123;-81
2024/01/29 01:58:44;;;;;;;38.42;19.10;;;-1.10;99.90;;;;;;5098888;27;20469;-81
2024/01/29 02:01:12;;;;;;;36.63;18.88;;;-1.10;99.90;;;;;;5094725;27;20030;-82
2024/01/29 02:03:39;;;;;;;38.97;20.98;;;-1.10;99.90;;;;;;5124236;27;20522;-82
2024/01/29 02:06:06;;;;;;;42.50;21.88;;;-1.20;99.90;;;;;;5065219;27;20064;-81
2024/01/29 02:08:32;;;;;;;37.28;18.25;;;-1.10;99.90;;;;;;5127205;27;20520;-74
2024/01/29 02:11:00;;;;;;;49.65;22.73;;;-1.20;99.90;;;;;;5132253;27;20026;-82
2024/01/29 02:13:26;;;;;;;41.20;19.25;;;-1.20;99.90;;;;;;5133509;27;20459;-75
2024/01/29 02:15:52;;;;;;;40.33;19.67;;;-1.20;99.90;;;;;;5132712;27;20047;-75
2024/01/29 02:18:17;;;;;;;37.97;19.15;;;-1.20;99.90;;;;;;5046070;28;20025;-82
2024/01/29 02:20:43;;;;;;;31.90;16.80;;;-1.20;99.90;;;;;;5096361;27;20133;-82
2024/01/29 02:23:09;;;;;;;37.70;18.90;;;-1.20;99.90;;;;;;5095517;27;20022;-82
2024/01/29 02:25:35;;;;;;;33.20;18.27;;;-1.20;99.90;;;;;;5095717;27;20125;-82
2024/01/29 02:28:00;;;;;;;38.45;18.20;;;-1.20;99.90;;;;;;5095639;27;20027;-81
2024/01/29 02:30:26;;;;;;;31.77;16.92;;;-1.20;99.90;;;;;;5095610;27;20027;-82
2024/01/29 02:32:52;;;;;;;37.47;17.20;;;-1.20;99.90;;;;;;5092749;27;20017;-81
2024/01/29 02:35:18;;;;;;;31.42;17.33;;;-1.30;99.90;;;;;;5092685;27;20077;-82
2024/01/29 02:37:43;;;;;;;33.08;16.45;;;-1.30;99.90;;;;;;5124180;27;20090;-73
2024/01/29 02:40:10;;;;;;;30.40;15.85;;;-1.30;99.90;;;;;;5105079;27;20122;-74
2024/01/29 02:42:36;;;;;;;33.05;15.75;;;-1.30;99.90;;;;;;5083116;27;20029;-75
2024/01/29 02:45:03;;;;;;;33.85;17.88;;;-1.30;99.90;;;;;;5061642;27;20512;-74
2024/01/29 02:47:29;;;;;;;33.17;16.02;;;-1.30;99.90;;;;;;5030975;28;20032;-82
2024/01/29 02:49:54;;;;;;;30.55;15.57;;;-1.30;99.90;;;;;;5031470;27;20022;-74
2024/01/29 02:52:20;;;;;;;31.05;17.48;;;-1.30;99.90;;;;;;5032474;27;20025;-81
2024/01/29 02:54:47;;;;;;;32.97;16.08;;;-1.30;99.90;;;;;;5031340;28;20031;-74
2024/01/29 02:57:12;;;;;;;33.60;15.75;;;-1.30;99.90;;;;;;5045733;28;20071;-81
2024/01/29 02:59:38;;;;;;;33.15;15.98;;;-1.30;99.90;;;;;;5028922;28;20033;-74
2024/01/29 03:02:04;;;;;;;29.25;15.70;;;-1.30;99.90;;;;;;5032657;28;20025;-82
2024/01/29 03:04:30;;;;;;;29.65;15.45;;;-1.30;99.90;;;;;;5032770;27;20498;-81
2024/01/29 03:06:56;;;;;;;26.38;15.07;;;-1.30;99.90;;;;;;5031784;27;20045;-82
2024/01/29 03:09:22;;;;;;;32.40;16.38;;;-1.30;99.90;;;;;;5034298;28;20382;-75
2024/01/29 03:11:47;;;;;;;30.98;14.57;;;-1.30;99.90;;;;;;5019649;28;20021;-82
2024/01/29 03:14:13;;;;;;;31.98;15.30;;;-1.40;99.90;;;;;;5031474;28;20394;-82
2024/01/29 03:16:39;;;;;;;33.28;14.85;;;-1.30;99.90;;;;;;5030737;28;20474;-82
2024/01/29 03:19:04;;;;;;;31.05;14.93;;;-1.30;99.90;;;;;;5028339;28;20114;-74
2024/01/29 03:21:30;;;;;;;27.70;13.50;;;-1.40;99.90;;;;;;5029896;28;20066;-82
2024/01/29 03:23:56;;;;;;;34.10;15.65;;;-1.40;99.90;;;;;;5033391;28;20382;-74
2024/01/29 03:26:22;;;;;;;33.03;16.48;;;-1.40;99.90;;;;;;5020238;28;20037;-74
2024/01/29 03:28:48;;;;;;;32.13;15.63;;;-1.30;99.90;;;;;;5034301;28;20161;-74
2024/01/29 03:31:14;;;;;;;33.67;17.08;;;-1.30;99.90;;;;;;5029893;28;20046;-74
2024/01/29 03:33:39;;;;;;;29.05;15.07;;;-1.30;99.90;;;;;;5132008;27;20072;-74
2024/01/29 03:36:06;;;;;;;24.88;13.13;;;-1.30;99.90;;;;;;5055597;28;20382;-81
2024/01/29 03:38:32;;;;;;;27.00;14.23;;;-1.30;99.90;;;;;;5095379;27;20137;-83
2024/01/29 03:40:59;;;;;;;23.88;12.38;;;-1.20;99.90;;;;;;5080502;27;20039;-82
2024/01/29 03:43:25;;;;;;;26.50;14.82;;;-1.20;99.90;;;;;;5096672;28;20026;-82
2024/01/29 03:45:51;;;;;;;33.05;13.65;;;-1.20;99.90;;;;;;5028590;28;20116;-74
2024/01/29 03:48:17;;;;;;;31.90;15.52;;;-1.20;99.90;;;;;;5051676;28;20025;-74
2024/01/29 03:50:44;;;;;;;25.30;13.80;;;-1.20;99.90;;;;;;5068068;27;20076;-82
2024/01/29 03:53:09;;;;;;;22.67;13.93;;;-1.20;99.90;;;;;;5130072;27;20023;-74
2024/01/29 03:55:35;;;;;;;27.02;14.80;;;-1.20;99.90;;;;;;5131955;27;20488;-74
2024/01/29 03:58:01;;;;;;;29.15;13.95;;;-1.20;99.90;;;;;;5130655;28;20379;-82
2024/01/29 04:00:26;;;;;;;29.15;15.23;;;-1.20;99.90;;;;;;5110210;28;20014;-82
2024/01/29 04:02:52;;;;;;;29.35;12.90;;;-1.30;99.90;;;;;;5093588;28;20028;-82
2024/01/29 04:05:19;;;;;;;26.42;13.73;;;-1.30;99.90;;;;;;5060968;28;20495;-82
2024/01/29 04:07:45;;;;;;;28.88;14.27;;;-1.30;99.90;;;;;;5066812;28;20031;-74
2024/01/29 04:10:11;;;;;;;31.67;14.77;;;-1.30;99.90;;;;;;5130110;27;20076;-81
2024/01/29 04:12:37;;;;;;;37.90;17.00;;;-1.30;99.90;;;;;;5129533;28;20520;-82
2024/01/29 04:15:03;;;;;;;32.33;15.25;;;-1.30;99.90;;;;;;5130263;28;20024;-82
2024/01/29 04:17:29;;;;;;;35.03;17.77;;;-1.30;99.90;;;;;;5095771;27;20025;-82
2024/01/29 04:19:55;;;;;;;37.15;17.00;;;-1.30;99.90;;;;;;5099088;28;20067;-83
2024/01/29 04:22:20;;;;;;;37.33;16.10;;;-1.40;99.90;;;;;;5130635;28;20027;-83
2024/01/29 04:24:46;;;;;;;29.60;16.83;;;-1.30;99.90;;;;;;5130516;28;20018;-75
2024/01/29 04:27:12;;;;;;;31.20;16.25;;;-1.40;99.90;;;;;;5131907;28;20051;-82
2024/01/29 04:29:38;;;;;;;33.67;17.48;;;-1.40;99.90;;;;;;5131310;28;20015;-82
2024/01/29 04:32:04;;;;;;;31.38;16.95;;;-1.40;99.90;;;;;;5099643;27;20464;-82
2024/01/29 04:34:29;;;;;;;29.10;15.85;;;-1.50;99.90;;;;;;5102362;27;20039;-81
2024/01/29 04:36:55;;;;;;;32.40;16.92;;;-1.50;99.90;;;;;;5135888;27;20023;-74
2024/01/29 04:39:21;;;;;;;32.95;16.25;;;-1.60;99.90;;;;;;5133209;27;20015;-74
2024/01/29 04:41:46;;;;;;;30.77;14.00;;;-1.60;99.90;;;;;;5034977;27;20026;-74
2024/01/29 04:44:14;;;;;;;30.05;15.18;;;-1.60;99.90;;;;;;5032070;28;20474;-74
2024/01/29 04:46:40;;;;;;;32.90;17.63;;;-1.70;99.90;;;;;;5030398;28;20049;-82
2024/01/29 04:49:06;;;;;;;36.25;19.17;;;-1.70;99.90;;;;;;5090935;27;20434;-83
2024/01/29 04:51:32;;;;;;;34.08;16.35;;;-1.80;99.90;;;;;;5067011;27;20378;-83
2024/01/29 04:53:57;;;;;;;30.40;16.15;;;-1.80;99.90;;;;;;5095821;27;20068;-75
2024/01/29 04:56:23;;;;;;;33.28;16.52;;;-1.80;99.90;;;;;;5117827;27;20057;-74
2024/01/29 04:58:49;;;;;;;36.88;17.02;;;-1.80;99.90;;;;;;5059574;27;20015;-74
2024/01/29 05:01:14;;;;;;;35.30;18.13;;;-1.90;99.90;;;;;;5034467;27;20436;-82
2024/01/29 05:03:40;;;;;;;33.50;17.10;;;-1.90;99.90;;;;;;5089018;27;20548;-74
2024/01/29 05:06:06;;;;;;;26.55;14.38;;;-1.90;99.90;;;;;;5052770;27;20037;-82
2024/01/29 05:08:32;;;;;;;27.38;14.15;;;-2.00;99.90;;;;;;5058885;27;20023;-74
2024/01/29 05:10:57;;;;;;;31.63;15.75;;;-2.00;99.90;;;;;;5067902;27;20104;-74
2024/01/29 05:13:23;;;;;;;29.77;15.82;;;-2.00;99.90;;;;;;5091405;27;20047;-74
2024/01/29 05:15:49;;;;;;;28.40;13.82;;;-2.00;99.90;;;;;;5117402;27;20021;-74
2024/01/29 05:18:14;;;;;;;28.13;15.50;;;-2.10;99.90;;;;;;5099936;27;20055;-74
2024/01/29 05:20:40;;;;;;;33.22;15.40;;;-2.10;99.90;;;;;;5075547;27;20109;-82
2024/01/29 05:23:06;;;;;;;28.83;13.90;;;-2.10;99.90;;;;;;5117091;27;20028;-75
2024/01/29 05:25:32;;;;;;;34.60;14.88;;;-2.10;99.90;;;;;;5101351;27;20603;-83
2024/01/29 05:27:57;;;;;;;32.63;15.82;;;-2.20;99.90;;;;;;5106964;27;20023;-75
2024/01/29 05:30:24;;;;;;;34.42;17.63;;;-2.20;99.90;;;;;;5035183;27;20363;-82
2024/01/29 05:32:49;;;;;;;34.40;16.52;;;-2.20;99.90;;;;;;5036711;27;20467;-74
2024/01/29 05:35:15;;;;;;;33.55;17.33;;;-2.20;99.90;;;;;;5052897;27;20022;-74
2024/01/29 05:37:41;;;;;;;40.10;18.42;;;-2.20;99.90;;;;;;5134307;27;20027;-74
2024/01/29 05:40:09;;;;;;;32.45;17.88;;;-2.20;99.90;;;;;;5087749;27;20071;-74
2024/01/29 05:42:35;;;;;;;30.70;17.55;;;-2.20;99.90;;;;;;5097226;27;20015;-73
2024/01/29 05:45:00;;;;;;;35.08;17.85;;;-2.20;99.90;;;;;;5123604;27;20092;-74
2024/01/29 05:47:26;;;;;;;34.50;16.85;;;-2.20;99.90;;;;;;5067512;27;20467;-73
2024/01/29 05:49:52;;;;;;;35.28;17.05;;;-2.30;99.90;;;;;;5030499;28;20026;-74
2024/01/29 05:52:17;;;;;;;36.00;19.00;;;-2.30;99.90;;;;;;5078401;27;20027;-73
2024/01/29 05:54:43;;;;;;;40.90;20.20;;;-2.30;99.90;;;;;;5073378;27;20023;-74
2024/01/29 05:57:12;;;;;;;39.58;18.55;;;-2.30;99.90;;;;;;5036612;27;20018;-73
2024/01/29 05:59:41;;;;;;;39.10;19.23;;;-2.30;99.90;;;;;;5114567;27;20029;-74
2024/01/29 06:02:07;;;;;;;36.22;17.60;;;-2.30;99.90;;;;;;5068555;27;20064;-73
2024/01/29 06:04:33;;;;;;;33.85;17.48;;;-2.30;99.90;;;;;;5075921;27;20051;-74
2024/01/29 06:06:59;;;;;;;38.00;19.83;;;-2.30;99.90;;;;;;5053103;27;20038;-75
2024/01/29 06:09:25;;;;;;;37.60;19.52;;;-2.30;99.90;;;;;;5048323;27;20030;-83
2024/01/29 06:11:51;;;;;;;41.28;19.58;;;-2.30;99.90;;;;;;5049704;27;20026;-84
2024/01/29 06:14:17;;;;;;;39.42;20.67;;;-2.30;99.90;;;;;;5048502;27;20146;-75
2024/01/29 06:16:43;;;;;;;42.88;20.88;;;-2.30;99.90;;;;;;5084544;27;20046;-82
2024/01/29 06:19:14;;;;;;;39.25;20.70;;;-2.40;99.90;;;;;;5056264;27;20114;-81
2024/01/29 06:21:41;;;;;;;38.47;20.35;;;-2.40;99.90;;;;;;5054562;27;20749;-82
2024/01/29 06:24:07;;;;;;;48.35;22.77;;;-2.40;99.90;;;;;;5069292;27;20020;-83
2024/01/29 06:26:33;;;;;;;49.30;23.70;;;-2.40;99.90;;;;;;5127018;27;20688;-82
2024/01/29 06:28:58;;;;;;;48.30;23.10;;;-2.40;99.90;;;;;;5089318;27;20026;-82
2024/01/29 06:31:24;;;;;;;58.35;26.25;;;-2.40;99.90;;;;;;5033218;27;20026;-85
2024/01/29 06:33:53;;;;;;;59.20;25.52;;;-2.40;99.90;;;;;;5129338;27;20490;-81
2024/01/29 06:36:19;;;;;;;58.03;25.15;;;-2.40;99.90;;;;;;5052038;27;20518;-80
2024/01/29 06:38:45;;;;;;;56.42;24.95;;;-2.30;99.90;;;;;;5068337;27;20099;-81
2024/01/29 06:41:21;;;;;;;75.78;34.03;;;-2.30;99.90;;;;;;5110211;27;20129;-81
2024/01/29 06:43:46;;;;;;;58.47;27.50;;;-2.30;99.90;;;;;;5037524;27;20076;-82
2024/01/29 06:46:12;;;;;;;58.95;27.17;;;-2.30;99.90;;;;;;5033034;27;20072;-80
2024/01/29 06:48:38;;;;;;;53.28;26.48;;;-2.30;99.90;;;;;;5074928;27;20051;-82
2024/01/29 06:51:04;;;;;;;60.58;31.20;;;-2.20;99.90;;;;;;5058887;27;20087;-82
2024/01/29 06:53:31;;;;;;;52.88;27.38;;;-2.20;99.90;;;;;;5039370;27;20041;-84
2024/01/29 06:55:59;;;;;;;50.45;25.08;;;-2.20;99.90;;;;;;5055278;27;20026;-82
2024/01/29 06:58:31;;;;;;;46.20;23.67;;;-2.20;99.90;;;;;;5068944;27;20034;-80
2024/01/29 07:00:59;;;;;;;46.22;23.65;;;-2.10;99.90;;;;;;5064916;27;20543;-80
2024/01/29 07:03:25;;;;;;;50.20;22.33;;;-2.10;99.90;;;;;;5071642;27;20035;-82
2024/01/29 07:05:51;;;;;;;49.42;21.77;;;-2.00;99.90;;;;;;5061059;27;20432;-82
2024/01/29 07:08:17;;;;;;;46.85;21.38;;;-1.90;99.90;;;;;;5072212;27;20023;-82
2024/01/29 07:10:44;;;;;;;49.50;22.92;;;-1.90;99.90;;;;;;5036547;27;20089;-82
2024/01/29 07:13:10;;;;;;;50.10;24.80;;;-1.80;99.90;;;;;;5073417;27;20053;-84
2024/01/29 07:15:35;;;;;;;50.30;24.40;;;-1.80;99.90;;;;;;5074870;27;20375;-83
2024/01/29 07:18:02;;;;;;;54.55;26.48;;;-1.80;99.90;;;;;;5062960;27;20020;-83
2024/01/29 07:20:29;;;;;;;67.75;29.95;;;-1.70;99.90;;;;;;5035755;27;20045;-75
2024/01/29 07:22:55;;;;;;;60.75;30.25;;;-1.70;99.90;;;;;;5051450;27;20025;-76
2024/01/29 07:25:22;;;;;;;80.95;36.55;;;-1.60;99.90;;;;;;5062823;27;20103;-76
2024/01/29 07:27:48;;;;;;;62.72;30.20;;;-1.60;99.90;;;;;;5042811;27;20033;-76
2024/01/29 07:30:14;;;;;;;55.00;27.27;;;-1.50;99.90;;;;;;5036314;28;20102;-76
2024/01/29 07:32:40;;;;;;;61.40;26.73;;;-1.50;99.90;;;;;;5048355;28;20022;-75
2024/01/29 07:35:06;;;;;;;58.72;27.48;;;-1.40;99.90;;;;;;5029489;27;20121;-75
2024/01/29 07:37:32;;;;;;;54.03;27.60;;;-1.30;99.90;;;;;;5048704;27;20023;-75
2024/01/29 07:39:58;;;;;;;51.00;24.77;;;-1.30;99.90;;;;;;5075876;27;20029;-75
2024/01/29 07:42:24;;;;;;;50.15;23.63;;;-1.20;99.90;;;;;;5069346;28;20036;-75
2024/01/29 07:44:51;;;;;;;46.70;23.08;;;-1.20;99.90;;;;;;5077029;27;20026;-76
2024/01/29 07:47:17;;;;;;;53.60;25.05;;;-1.10;99.90;;;;;;5122075;28;20026;-75
2024/01/29 07:49:42;;;;;;;57.47;27.52;;;-1.00;99.90;;;;;;5036424;27;20022;-74
2024/01/29 07:52:09;;;;;;;56.80;28.20;;;-0.90;99.90;;;;;;5055057;28;20679;-82
2024/01/29 07:54:35;;;;;;;57.13;26.67;;;-0.80;99.90;;;;;;5035840;27;20375;-82
2024/01/29 07:57:00;;;;;;;54.90;26.88;;;-0.60;99.90;;;;;;5032505;28;20105;-83
2024/01/29 07:59:26;;;;;;;44.63;24.38;;;-0.50;99.90;;;;;;5026183;28;20048;-74
2024/01/29 08:01:52;;;;;;;49.63;26.10;;;-0.40;99.90;;;;;;5105818;27;20024;-83
2024/01/29 08:04:17;;;;;;;48.47;24.88;;;-0.30;99.90;;;;;;5077191;28;20025;-82
2024/01/29 08:06:43;;;;;;;47.28;24.83;;;-0.30;99.90;;;;;;5057150;27;20129;-82
2024/01/29 08:09:09;;;;;;;49.35;24.65;;;-0.10;99.90;;;;;;5068773;27;20399;-82
2024/01/29 08:11:35;;;;;;;54.28;27.02;;;0.00;99.90;;;;;;5067059;27;20040;-81
2024/01/29 08:14:00;;;;;;;49.90;25.38;;;0.20;99.90;;;;;;5067840;27;20150;-82
2024/01/29 08:16:26;;;;;;;51.38;23.08;;;0.20;99.90;;;;;;5085169;27;20023;-82
2024/01/29 08:18:52;;;;;;;63.22;29.75;;;0.30;99.90;;;;;;5068354;27;20048;-83
2024/01/29 08:21:17;;;;;;;64.13;31.52;;;0.40;99.90;;;;;;5087030;27;20039;-83
2024/01/29 08:23:44;;;;;;;61.75;32.50;;;0.60;99.90;;;;;;5056388;27;20022;-82
2024/01/29 08:26:09;;;;;;;40.50;19.23;;;0.70;99.90;;;;;;5086784;27;20035;-82
2024/01/29 08:28:35;;;;;;;36.42;20.00;;;0.70;99.90;;;;;;5051211;27;20022;-75
2024/01/29 08:31:01;;;;;;;32.45;17.55;;;0.80;99.90;;;;;;5032374;27;20475;-82
2024/01/29 08:33:30;;;;;;;36.05;16.77;;;0.90;99.90;;;;;;5041153;27;20106;-82
2024/01/29 08:35:56;;;;;;;37.67;17.08;;;1.00;99.90;;;;;;5031641;28;20082;-81
2024/01/29 08:38:22;;;;;;;39.10;19.10;;;1.10;99.90;;;;;;5048818;27;20025;-76
2024/01/29 08:40:49;;;;;;;31.85;15.48;;;1.20;99.90;;;;;;5036817;27;20049;-75
2024/01/29 08:43:15;;;;;;;35.88;19.45;;;1.20;99.90;;;;;;5029929;28;20067;-76
2024/01/29 08:45:41;;;;;;;30.48;16.35;;;1.40;99.90;;;;;;5031147;28;20077;-76
2024/01/29 08:48:07;;;;;;;27.48;15.25;;;1.50;99.90;;;;;;5060991;27;20036;-75
2024/01/29 08:50:36;;;;;;;26.67;15.27;;;1.50;99.90;;;;;;5120527;27;20041;-75
2024/01/29 08:53:03;;;;;;;27.95;14.63;;;1.60;99.90;;;;;;5122228;27;20071;-76
2024/01/29 08:55:30;;;;;;;27.60;15.48;;;1.70;99.90;;;;;;5067780;27;20562;-76
2024/01/29 08:57:56;;;;;;;21.30;12.52;;;1.80;99.90;;;;;;5075070;27;20021;-76
2024/01/29 09:00:22;;;;;;;27.05;13.32;;;1.90;99.90;;;;;;5023021;28;20041;-82
2024/01/29 09:02:49;;;;;;;25.48;13.00;;;2.00;99.90;;;;;;5044336;27;20368;-82
2024/01/29 09:05:16;;;;;;;19.80;12.23;;;2.10;99.90;;;;;;5106490;27;20141;-83
2024/01/29 09:07:41;;;;;;;24.40;11.90;;;2.20;99.90;;;;;;5045997;27;20023;-83
2024/01/29 09:10:08;;;;;;;22.13;12.73;;;2.30;99.90;;;;;;5117694;27;20030;-83
2024/01/29 09:12:33;;;;;;;23.65;11.57;;;2.40;99.90;;;;;;5062051;27;20110;-83
2024/01/29 09:15:01;;;;;;;28.08;14.75;;;2.50;99.90;;;;;;5073682;27;20027;-84
2024/01/29 09:17:27;;;;;;;29.80;16.17;;;2.60;99.90;;;;;;5036354;28;20045;-83
2024/01/29 09:19:52;;;;;;;26.08;14.43;;;2.70;99.90;;;;;;5064301;27;20015;-83
2024/01/29 09:22:18;;;;;;;23.85;12.40;;;2.80;99.90;;;;;;5055340;27;20041;-84
2024/01/29 09:24:44;;;;;;;23.60;12.60;;;2.90;99.90;;;;;;5120675;27;20021;-84
2024/01/29 09:27:10;;;;;;;22.88;12.43;;;3.00;99.90;;;;;;5044266;27;20386;-84
2024/01/29 09:29:36;;;;;;;33.15;17.30;;;3.10;99.90;;;;;;5096805;27;20031;-84
2024/01/29 09:32:01;;;;;;;57.17;27.65;;;3.10;99.90;;;;;;5048520;27;20527;-83
2024/01/29 09:34:27;;;;;;;60.08;28.90;;;3.20;99.90;;;;;;5116711;27;20014;-83
2024/01/29 09:36:53;;;;;;;24.27;12.65;;;3.30;99.90;;;;;;5028357;28;20368;-83
2024/01/29 09:39:22;;;;;;;20.30;11.25;;;3.30;99.90;;;;;;5089251;27;20055;-85
2024/01/29 09:41:49;;;;;;;29.58;18.63;;;3.30;99.90;;;;;;5051386;27;20387;-83
2024/01/29 09:44:15;;;;;;;31.13;16.52;;;3.40;99.90;;;;;;5077873;27;20031;-83
2024/01/29 09:46:41;;;;;;;80.68;51.65;;;3.50;99.90;;;;;;5066137;27;20132;-83
2024/01/29 09:49:07;;;;;;;65.25;38.90;;;3.50;99.90;;;;;;5070010;27;20106;-83
2024/01/29 09:51:34;;;;;;;45.33;27.95;;;3.60;99.90;;;;;;5074319;27;20034;-83
2024/01/29 09:54:01;;;;;;;26.73;15.02;;;3.70;99.90;;;;;;5029773;27;20100;-83
2024/01/29 09:56:28;;;;;;;26.90;14.45;;;3.70;99.90;;;;;;5059810;27;20042;-82
2024/01/29 09:58:54;;;;;;;27.58;16.00;;;3.70;99.90;;;;;;5098683;27;20088;-83
2024/01/29 10:01:21;;;;;;;19.98;12.35;;;3.70;99.90;;;;;;5032630;27;20033;-83
2024/01/29 10:03:47;;;;;;;19.45;11.73;;;3.80;99.90;;;;;;5092096;27;20027;-83
2024/01/29 10:06:13;;;;;;;27.08;15.85;;;3.80;99.90;;;;;;5025283;28;20102;-84
2024/01/29 10:08:39;;;;;;;42.90;24.35;;;3.90;99.90;;;;;;5088379;27;20011;-84
2024/01/29 10:11:05;;;;;;;49.50;21.10;;;3.90;99.90;;;;;;5068446;27;20048;-83
2024/01/29 10:13:32;;;;;;;26.13;12.25;;;3.90;99.90;;;;;;5037677;27;20076;-83
2024/01/29 10:15:57;;;;;;;17.48;10.65;;;4.00;99.90;;;;;;5025858;27;20013;-82
2024/01/29 10:18:23;;;;;;;69.68;31.60;;;4.10;99.90;;;;;;5048325;27;20078;-82
2024/01/29 10:21:03;;;;;;;47.67;23.60;;;4.10;99.90;;;;;;5048020;27;20021;-83
2024/01/29 10:23:28;;;;;;;35.78;21.10;;;4.10;99.90;;;;;;5040712;27;20032;-83
2024/01/29 10:25:56;;;;;;;47.50;26.23;;;4.10;99.90;;;;;;5053270;27;20033;-84
2024/01/29 10:28:23;;;;;;;38.03;20.40;;;4.10;99.90;;;;;;5060374;27;20104;-83
2024/01/29 10:30:50;;;;;;;27.45;14.13;;;4.20;99.90;;;;;;5042642;27;20047;-83
2024/01/29 10:33:16;;;;;;;29.00;15.25;;;4.20;99.90;;;;;;5060277;27;20049;-83
2024/01/29 10:35:41;;;;;;;19.73;10.82;;;4.20;99.90;;;;;;5029008;28;20022;-83
2024/01/29 10:38:07;;;;;;;27.42;12.00;;;4.20;99.90;;;;;;5028113;28;20021;-83
2024/01/29 10:40:34;;;;;;;30.80;13.40;;;4.20;99.90;;;;;;5027418;28;20018;-83
2024/01/29 10:43:02;;;;;;;63.42;38.65;;;4.30;99.90;;;;;;5029021;28;20037;-83
2024/01/29 10:45:28;;;;;;;52.50;23.08;;;4.30;99.90;;;;;;5031908;27;20582;-83
2024/01/29 10:48:30;;;;;;;42.45;18.83;;;4.40;99.90;;;;;;5084284;27;20036;-82
2024/01/29 10:50:56;;;;;;;49.47;24.90;;;4.40;99.90;;;;;;5100838;27;20562;-84
2024/01/29 10:53:22;;;;;;;19.27;9.88;;;4.40;99.90;;;;;;5056926;27;20411;-83
2024/01/29 10:55:50;;;;;;;29.02;12.68;;;4.50;99.90;;;;;;5072748;27;20015;-83
2024/01/29 10:58:17;;;;;;;24.20;11.43;;;4.50;99.90;;;;;;5066392;27;20467;-83
2024/01/29 11:00:44;;;;;;;45.63;21.52;;;4.50;99.90;;;;;;5069638;27;20015;-83
2024/01/29 11:03:12;;;;;;;48.85;28.83;;;4.50;99.90;;;;;;5087631;27;20034;-82
2024/01/29 11:05:40;;;;;;;28.60;14.07;;;4.60;99.90;;;;;;5041517;27;20120;-83
2024/01/29 11:08:11;;;;;;;26.73;12.07;;;4.70;99.90;;;;;;5064251;27;20033;-83
2024/01/29 11:10:37;;;;;;;69.68;34.13;;;4.70;99.90;;;;;;5094109;27;20033;-83
2024/01/29 11:13:04;;;;;;;21.08;11.85;;;4.80;99.90;;;;;;5055978;27;20047;-82
2024/01/29 11:15:31;;;;;;;66.75;25.58;;;4.80;99.90;;;;;;5025176;28;20021;-83
2024/01/29 11:17:58;;;;;;;41.47;18.15;;;4.90;99.90;;;;;;5030728;28;20086;-83
2024/01/29 11:20:24;;;;;;;23.83;11.52;;;4.90;99.90;;;;;;5044722;27;20029;-82
2024/01/29 11:22:52;;;;;;;20.23;9.95;;;5.00;99.90;;;;;;5110701;27;20029;-83
2024/01/29 11:25:19;;;;;;;31.65;15.30;;;5.00;99.90;;;;;;5077842;27;20030;-83
2024/01/29 11:27:46;;;;;;;30.05;14.07;;;5.00;99.90;;;;;;5052382;27;20104;-83
2024/01/29 11:30:19;;;;;;;30.15;12.80;;;5.10;99.90;;;;;;5050711;28;20029;-77
2024/01/29 11:32:46;;;;;;;;;;;5.10;98.00;;;;;;5042434;27;20120;-79
2024/01/29 11:35:15;;;;;;;65.43;36.72;;;5.20;98.00;;;;;;5021540;28;19917;-78
2024/01/29 11:37:42;;;;;;;47.42;21.48;;;5.20;98.80;;;;;;5017358;28;20037;-78
2024/01/29 11:40:30;;;;;;;25.05;12.05;;;5.20;97.50;;;;;;5069506;28;20087;-78
2024/01/29 11:42:55;;;;;;;27.92;12.63;;;5.20;95.40;;;;;;5090770;27;20035;-79
2024/01/29 11:45:23;;;;;;;14.82;7.75;;;5.30;94.40;;;;;;5027361;28;20018;-79
2024/01/29 11:47:49;;;;;;;41.72;22.02;;;5.30;89.10;;;;;;5014978;28;20459;-79
2024/01/29 11:50:15;;;;;;;17.88;9.55;;;5.40;87.20;;;;;;5091664;28;20038;-78
2024/01/29 11:52:40;;;;;;;14.35;7.28;;;5.40;85.70;;;;;;5077875;28;20049;-78
2024/01/29 11:55:06;;;;;;;15.63;7.07;;;5.50;84.30;;;;;;5020042;28;20022;-81
2024/01/29 11:57:32;;;;;;;29.75;13.90;;;5.50;82.00;;;;;;5066041;27;20129;-78
2024/01/29 12:00:00;;;;;;;90.35;38.83;;;5.50;82.00;;;;;;5026984;28;20025;-79
2024/01/29 12:02:30;;;;;;;24.42;10.00;;;5.60;82.70;;;;;;5043735;28;20057;-81
2024/01/29 12:04:57;;;;;;;14.65;6.82;;;5.60;82.20;;;;;;5027881;28;20022;-79
2024/01/29 12:07:23;;;;;;;32.53;13.95;;;5.60;81.90;;;;;;5037530;28;20502;-78
2024/01/29 12:09:49;;;;;;;17.23;10.10;;;5.60;82.50;;;;;;5077035;28;20031;-78
2024/01/29 12:12:14;;;;;;;49.60;22.35;;;5.70;83.00;;;;;;5035590;28;20053;-79
2024/01/29 12:14:40;;;;;;;35.83;14.60;;;5.70;83.00;;;;;;5026336;28;20041;-78
2024/01/29 12:17:06;;;;;;;25.15;11.60;;;5.80;83.30;;;;;;5113276;28;20162;-78
2024/01/29 12:19:33;;;;;;;21.02;9.63;;;5.80;83.10;;;;;;5071312;28;20033;-83
2024/01/29 12:21:59;;;;;;;18.35;9.25;;;5.80;82.50;;;;;;5081918;28;20028;-79
2024/01/29 12:24:26;;;;;;;39.58;15.25;;;5.80;82.40;;;;;;5109006;27;20035;-85
2024/01/29 12:26:52;;;;;;;20.33;7.85;;;5.80;82.40;;;;;;5087346;28;20568;-84